createdAt,value
2023-01-23T00:00:35.465Z,81.64
2023-01-23T00:03:37.866Z,81.50
2023-01-23T00:06:40.998Z,81.94
2023-01-23T00:09:43.532Z,81.83
2023-01-23T00:12:49.029Z,80.91
2023-01-23T00:15:51.998Z,81.21
2023-01-23T00:18:54.816Z,81.44
2023-01-23T00:22:00.205Z,81.95
2023-01-23T00:25:03.461Z,81.95
2023-01-23T00:28:06.828Z,81.96
2023-01-23T00:31:13.064Z,82.27
2023-01-23T00:34:15.695Z,82.78
2023-01-23T00:37:18.060Z,82.66
2023-01-23T00:40:23.623Z,82.49
2023-01-23T00:43:26.127Z,83.18
2023-01-23T00:46:28.633Z,82.30
2023-01-23T00:49:32.550Z,81.61
2023-01-23T00:52:35.156Z,81.97
2023-01-23T00:55:37.486Z,82.44
2023-01-23T00:58:43.520Z,82.64
2023-01-23T01:01:47.890Z,82.92
2023-01-23T01:04:50.396Z,82.66
2023-01-23T01:07:52.774Z,82.42
2023-01-23T01:10:56.435Z,82.86
2023-01-23T01:14:01.475Z,82.35
2023-01-23T01:17:04.076Z,82.68
2023-01-23T01:20:08.785Z,82.58
2023-01-23T01:23:11.981Z,81.92
2023-01-23T01:26:14.535Z,81.56
2023-01-23T01:29:18.117Z,82.01
2023-01-23T01:32:20.528Z,82.17
2023-01-23T01:35:24.577Z,82.03
2023-01-23T01:38:27.480Z,81.75
2023-01-23T01:41:31.036Z,81.46
2023-01-23T01:44:57.678Z,81.25
2023-01-23T01:48:00.974Z,81.39
2023-01-23T01:51:14.260Z,81.23
2023-01-23T01:54:23.192Z,81.20
2023-01-23T01:57:30.395Z,81.49
2023-01-23T02:00:36.226Z,80.28
2023-01-23T02:03:39.496Z,80.65
2023-01-23T02:06:42.023Z,80.67
2023-01-23T02:09:44.908Z,80.29
2023-01-23T02:12:50.126Z,80.57
2023-01-23T02:15:53.187Z,80.27
2023-01-23T02:19:01.127Z,80.41
2023-01-23T02:22:28.361Z,80.80
2023-01-23T02:25:42.895Z,79.87
2023-01-23T02:28:51.624Z,79.46
2023-01-23T02:31:56.869Z,78.85
2023-01-23T02:35:05.473Z,79.39
2023-01-23T02:38:11.403Z,79.26
2023-01-23T02:41:15.300Z,79.30
2023-01-23T02:44:25.168Z,78.94
2023-01-23T02:47:29.574Z,79.01
2023-01-23T02:50:34.984Z,79.02
2023-01-23T02:53:38.109Z,78.84
2023-01-23T02:56:42.311Z,79.13
2023-01-23T03:00:03.200Z,79.22
2023-01-23T03:03:08.656Z,78.88
2023-01-23T03:06:11.679Z,79.26
2023-01-23T03:09:17.141Z,79.39
2023-01-23T03:12:21.269Z,79.38
2023-01-23T03:15:24.096Z,78.94
2023-01-23T03:18:27.731Z,79.52
2023-01-23T03:21:30.280Z,80.06
2023-01-23T03:24:34.137Z,79.67
2023-01-23T03:27:37.439Z,79.35
2023-01-23T03:30:40.376Z,78.49
2023-01-23T03:33:44.251Z,79.87
2023-01-23T03:36:48.437Z,78.42
2023-01-23T03:40:09.750Z,80.69
2023-01-23T03:43:14.088Z,80.62
2023-01-23T03:46:22.317Z,79.31
2023-01-23T03:49:25.221Z,78.01
2023-01-23T03:52:33.540Z,77.99
2023-01-23T03:55:35.928Z,78.91
2023-01-23T03:58:38.805Z,79.72
2023-01-23T04:01:41.593Z,80.34
2023-01-23T04:04:44.015Z,80.85
2023-01-23T04:07:46.354Z,81.32
2023-01-23T04:10:49.830Z,80.66
2023-01-23T04:13:53.825Z,80.96
2023-01-23T04:16:56.267Z,80.02
2023-01-23T04:19:58.779Z,80.36
2023-01-23T04:23:01.687Z,80.56
2023-01-23T04:26:05.462Z,80.26
2023-01-23T04:29:08.198Z,80.78
2023-01-23T04:32:10.933Z,80.44
2023-01-23T04:35:19.700Z,80.54
2023-01-23T04:38:23.941Z,80.37
2023-01-23T04:41:29.303Z,81.11
2023-01-23T04:44:43.186Z,80.76
2023-01-23T04:48:03.822Z,79.39
2023-01-23T04:51:08.879Z,78.89
2023-01-23T04:54:12.232Z,79.19
2023-01-23T04:57:14.557Z,79.15
2023-01-23T05:00:18.671Z,79.05
2023-01-23T05:03:22.347Z,78.41
2023-01-23T05:06:24.896Z,79.39
2023-01-23T05:09:30.353Z,80.02
2023-01-23T05:12:34.458Z,79.92
2023-01-23T05:15:38.328Z,79.88
2023-01-23T05:18:40.874Z,79.56
2023-01-23T05:21:43.366Z,80.54
2023-01-23T05:24:50.795Z,79.73
2023-01-23T05:27:53.879Z,80.10
2023-01-23T05:30:57.094Z,79.79
2023-01-23T05:34:14.612Z,79.74
2023-01-23T05:37:17.654Z,79.88
2023-01-23T05:40:25.459Z,79.75
2023-01-23T05:43:57.523Z,79.75
2023-01-23T05:47:07.333Z,79.80
2023-01-23T05:50:15.222Z,80.45
2023-01-23T05:53:18.760Z,80.11
2023-01-23T05:56:21.395Z,80.42
2023-01-23T05:59:44.645Z,80.06
2023-01-23T06:03:06.655Z,80.70
2023-01-23T06:06:27.682Z,80.06
2023-01-23T06:09:30.500Z,80.21
2023-01-23T06:12:34.341Z,80.18
2023-01-23T06:15:37.500Z,79.59
2023-01-23T06:18:45.132Z,79.88
2023-01-23T06:21:49.436Z,80.02
2023-01-23T06:24:52.729Z,79.89
2023-01-23T06:27:55.720Z,80.03
2023-01-23T06:31:02.434Z,79.88
2023-01-23T06:34:15.017Z,79.39
2023-01-23T06:37:28.052Z,79.54
2023-01-23T06:40:30.844Z,79.23
2023-01-23T06:43:53.695Z,79.51
2023-01-23T06:46:59.011Z,79.09
2023-01-23T06:50:02.567Z,78.76
2023-01-23T06:53:09.552Z,78.66
2023-01-23T06:56:13.045Z,78.35
2023-01-23T06:59:15.739Z,78.29
2023-01-23T07:02:18.163Z,77.59
2023-01-23T07:05:26.095Z,77.21
2023-01-23T07:08:28.773Z,78.09
2023-01-23T07:11:31.448Z,76.54
2023-01-23T07:14:34.083Z,76.73
2023-01-23T07:17:36.500Z,75.76
2023-01-23T07:20:44.505Z,74.19
2023-01-23T07:23:46.892Z,71.11
2023-01-23T07:26:49.251Z,64.77
2023-01-23T07:29:51.826Z,62.62
2023-01-23T07:32:54.281Z,60.58
2023-01-23T07:35:56.606Z,59.00
2023-01-23T07:38:59.133Z,59.80
2023-01-23T07:42:01.575Z,56.92
2023-01-23T07:45:04.776Z,57.59
2023-01-23T07:48:07.368Z,57.95
2023-01-23T07:51:09.863Z,56.52
2023-01-23T07:54:12.461Z,56.46
2023-01-23T07:57:14.866Z,56.16
2023-01-23T08:00:18.001Z,56.38
2023-01-23T08:03:21.165Z,55.74
2023-01-23T08:06:23.628Z,54.99
2023-01-23T08:09:26.025Z,53.86
2023-01-23T08:12:28.618Z,53.96
2023-01-23T08:15:31.037Z,53.01
2023-01-23T08:18:34.267Z,53.50
2023-01-23T08:21:36.659Z,53.10
2023-01-23T08:24:39.110Z,53.99
2023-01-23T08:27:41.504Z,53.07
2023-01-23T08:30:44.881Z,53.38
2023-01-23T08:33:47.241Z,53.04
2023-01-23T08:36:50.309Z,51.02
2023-01-23T08:39:52.857Z,50.64
2023-01-23T08:42:57.367Z,49.02
2023-01-23T08:46:00.288Z,47.31
2023-01-23T08:49:05.070Z,48.28
2023-01-23T08:52:07.783Z,47.23
2023-01-23T08:55:11.001Z,47.20
2023-01-23T08:58:13.882Z,47.29
2023-01-23T09:01:19.235Z,46.36
2023-01-23T09:04:21.678Z,46.47
2023-01-23T09:07:24.149Z,45.82
2023-01-23T09:10:27.674Z,44.02
2023-01-23T09:13:30.217Z,44.70
2023-01-23T09:16:32.902Z,44.43
2023-01-23T09:19:35.343Z,44.26
2023-01-23T09:22:37.795Z,45.52
2023-01-23T09:25:40.382Z,44.44
2023-01-23T09:28:43.112Z,43.93
2023-01-23T09:31:48.842Z,42.39
2023-01-23T09:34:51.457Z,41.91
2023-01-23T09:38:04.232Z,41.24
2023-01-23T09:41:16.891Z,41.28
2023-01-23T09:44:25.636Z,40.89
2023-01-23T09:47:45.339Z,41.06
2023-01-23T09:51:02.395Z,39.78
2023-01-23T09:54:17.244Z,39.97
2023-01-23T09:57:28.471Z,39.07
2023-01-23T10:00:39.244Z,39.66
2023-01-23T10:03:42.267Z,39.46
2023-01-23T10:07:08.215Z,39.50
2023-01-23T10:10:25.908Z,39.08
2023-01-23T10:14:03.277Z,39.39
2023-01-23T10:17:27.944Z,37.86
2023-01-23T10:20:49.948Z,37.65
2023-01-23T10:24:03.465Z,36.75
2023-01-23T10:27:34.224Z,36.19
2023-01-23T10:30:39.173Z,35.41
2023-01-23T10:33:49.368Z,36.33
2023-01-23T10:36:57.435Z,37.41
2023-01-23T10:40:10.342Z,38.97
2023-01-23T10:43:14.811Z,39.92
2023-01-23T10:46:23.368Z,41.91
2023-01-23T10:49:31.375Z,41.97
2023-01-23T10:52:39.624Z,40.39
2023-01-23T10:55:45.817Z,40.44
2023-01-23T10:58:49.365Z,41.56
2023-01-23T11:02:02.835Z,39.24
2023-01-23T11:05:37.611Z,38.25
2023-01-23T11:09:00.920Z,36.09
2023-01-23T11:12:05.693Z,35.63
2023-01-23T11:15:11.935Z,37.59
2023-01-23T11:18:42.621Z,37.21
2023-01-23T11:21:56.739Z,37.58
2023-01-23T11:24:59.782Z,41.92
2023-01-23T11:28:34.073Z,43.13
2023-01-23T11:31:36.758Z,44.01
2023-01-23T11:34:57.222Z,45.62
2023-01-23T11:38:03.513Z,44.85
2023-01-23T11:41:11.357Z,45.93
2023-01-23T11:44:18.693Z,45.97
2023-01-23T11:47:58.998Z,47.37
2023-01-23T11:51:20.148Z,49.67
2023-01-23T11:54:59.907Z,52.26
2023-01-23T11:58:20.860Z,54.22
2023-01-23T12:01:36.492Z,53.09
2023-01-23T12:04:44.607Z,53.85
2023-01-23T12:08:08.686Z,52.97
2023-01-23T12:11:20.441Z,50.73
2023-01-23T12:14:47.365Z,47.39
2023-01-23T12:18:16.188Z,45.93
2023-01-23T12:21:42.657Z,47.04
2023-01-23T12:25:15.791Z,49.57
2023-01-23T12:28:23.973Z,51.24
2023-01-23T12:31:48.557Z,48.38
2023-01-23T12:34:56.960Z,49.86
2023-01-23T12:38:27.181Z,48.11
2023-01-23T12:41:37.958Z,47.74
2023-01-23T12:45:13.547Z,48.15
2023-01-23T12:48:30.221Z,51.41
2023-01-23T12:51:43.311Z,54.47
2023-01-23T12:54:57.004Z,54.90
2023-01-23T12:58:09.149Z,56.05
2023-01-23T13:01:38.181Z,57.34
2023-01-23T13:05:02.163Z,56.27
2023-01-23T13:08:11.693Z,55.94
2023-01-23T13:11:40.988Z,56.41
2023-01-23T13:18:21.414Z,58.95
2023-01-23T13:21:43.263Z,59.02
2023-01-23T13:25:06.884Z,59.66
2023-01-23T13:28:45.275Z,58.03
2023-01-23T13:31:50.648Z,55.86
2023-01-23T13:34:53.267Z,55.59
2023-01-23T13:37:55.709Z,55.22
2023-01-23T13:41:04.662Z,55.02
2023-01-23T13:44:40.376Z,55.79
2023-01-23T14:22:47.264Z,62.91
2023-01-23T14:25:49.859Z,62.58
2023-01-23T14:28:54.857Z,62.42
2023-01-23T14:31:57.542Z,62.77
2023-01-23T14:35:00.103Z,64.11
2023-01-23T14:38:06.822Z,64.92
2023-01-23T14:41:09.406Z,65.84
2023-01-23T14:44:20.833Z,66.98
2023-01-23T14:47:34.731Z,67.40
2023-01-23T14:50:38.202Z,68.42
2023-01-23T14:53:41.063Z,67.78
2023-01-23T14:56:45.564Z,68.19
2023-01-23T14:59:49.637Z,68.81
2023-01-23T15:02:54.443Z,68.68
2023-01-23T15:05:59.457Z,69.07
2023-01-23T15:09:15.758Z,69.11
2023-01-23T15:12:19.289Z,70.04
2023-01-23T15:15:24.646Z,69.33
2023-01-23T15:18:36.260Z,70.34
2023-01-23T15:21:40.994Z,69.91
2023-01-23T15:24:43.879Z,69.78
2023-01-23T15:27:46.728Z,70.44
2023-01-23T15:30:49.222Z,70.80
2023-01-23T15:33:52.095Z,70.72
2023-01-23T15:37:08.416Z,71.45
2023-01-23T15:40:19.732Z,71.08
2023-01-23T15:43:22.156Z,71.25
2023-01-23T15:46:24.589Z,71.43
2023-01-23T15:49:28.435Z,71.93
2023-01-23T15:52:46.127Z,71.67
2023-01-23T15:55:48.461Z,71.92
2023-01-23T15:58:50.867Z,70.97
2023-01-23T16:01:53.462Z,71.18
2023-01-23T16:04:55.845Z,71.41
2023-01-23T16:08:03.352Z,71.36
2023-01-23T16:11:08.551Z,71.19
2023-01-23T16:14:16.942Z,70.86
2023-01-23T16:17:19.577Z,71.87
2023-01-23T16:20:28.775Z,71.68
2023-01-23T16:23:39.130Z,70.85
2023-01-23T16:26:50.764Z,71.00
2023-01-23T16:29:54.878Z,71.31
2023-01-23T16:32:57.911Z,71.11
2023-01-23T16:36:00.602Z,71.52
2023-01-23T16:39:03.539Z,71.32
2023-01-23T16:42:06.628Z,71.15
2023-01-23T16:45:21.559Z,70.82
2023-01-23T16:48:27.922Z,71.72
2023-01-23T16:51:32.834Z,71.13
2023-01-23T16:54:36.193Z,71.39
2023-01-23T16:57:38.652Z,70.80
2023-01-23T17:00:42.368Z,71.43
2023-01-23T17:03:45.212Z,71.35
2023-01-23T17:06:48.566Z,71.46
2023-01-23T17:09:51.782Z,72.00
2023-01-23T17:12:56.900Z,71.34
2023-01-23T17:16:00.792Z,72.26
2023-01-23T17:19:14.954Z,71.27
2023-01-23T17:22:23.116Z,71.50
2023-01-23T17:25:26.812Z,71.17
2023-01-23T17:28:29.590Z,70.34
2023-01-23T17:31:33.072Z,70.23
2023-01-23T17:34:45.128Z,70.49
2023-01-23T17:37:52.445Z,70.44
2023-01-23T17:40:55.742Z,70.44
2023-01-23T17:43:58.478Z,70.11
2023-01-23T17:47:00.981Z,71.11
2023-01-23T17:50:04.713Z,70.84
2023-01-23T17:53:09.048Z,70.98
2023-01-23T17:56:12.003Z,71.67
2023-01-23T17:59:14.514Z,70.69
2023-01-23T18:02:27.133Z,70.68
2023-01-23T18:05:30.059Z,71.04
2023-01-23T18:08:32.926Z,70.55
2023-01-23T18:11:38.293Z,71.54
2023-01-23T18:14:52.791Z,70.77
2023-01-23T18:18:09.167Z,71.36
2023-01-23T18:21:17.933Z,71.13
2023-01-23T18:24:29.240Z,70.91
2023-01-23T18:27:40.368Z,70.40
2023-01-23T18:30:54.881Z,70.87
2023-01-23T18:34:18.032Z,71.13
2023-01-23T18:37:32.524Z,71.25
2023-01-23T18:40:43.224Z,70.34
2023-01-23T18:43:56.016Z,70.82
2023-01-23T18:47:00.216Z,70.16
2023-01-23T18:50:03.693Z,71.50
2023-01-23T18:53:26.530Z,71.55
2023-01-23T18:56:40.271Z,72.02
2023-01-23T18:59:55.528Z,72.71
2023-01-23T19:03:17.862Z,73.18
2023-01-23T19:06:23.227Z,72.95
2023-01-23T19:09:27.230Z,72.68
2023-01-23T19:12:35.847Z,72.08
2023-01-23T19:16:39.944Z,71.45
2023-01-23T19:19:56.785Z,71.90
2023-01-23T19:23:10.895Z,72.61
2023-01-23T19:26:15.221Z,73.31
2023-01-23T19:29:22.867Z,74.00
2023-01-23T19:32:26.258Z,74.28
2023-01-23T19:35:29.464Z,74.47
2023-01-23T19:38:32.238Z,74.79
2023-01-23T19:41:39.416Z,74.97
2023-01-23T19:44:42.232Z,74.40
2023-01-23T19:47:45.692Z,74.30
2023-01-23T19:50:48.469Z,75.19
2023-01-23T19:53:50.881Z,75.66
2023-01-23T19:56:53.470Z,76.10
2023-01-23T19:59:56.684Z,75.48
2023-01-23T20:02:59.592Z,75.33
2023-01-23T20:06:02.208Z,75.44
2023-01-23T20:09:04.660Z,75.22
2023-01-23T20:12:07.365Z,76.09
2023-01-23T20:15:12.959Z,76.44
2023-01-23T20:18:15.748Z,76.22
2023-01-23T20:21:26.097Z,76.13
2023-01-23T20:24:28.692Z,76.42
2023-01-23T20:27:31.357Z,76.38
2023-01-23T20:30:35.535Z,75.42
2023-01-23T20:33:39.584Z,75.79
2023-01-23T20:36:42.864Z,77.53
2023-01-23T20:39:45.659Z,77.93
2023-01-23T20:42:48.183Z,78.66
2023-01-23T20:45:52.530Z,78.83
2023-01-23T20:48:56.450Z,78.93
2023-01-23T20:52:19.295Z,78.26
2023-01-23T20:55:22.103Z,78.37
2023-01-23T20:58:43.426Z,78.91
2023-01-23T21:02:05.268Z,78.13
2023-01-23T21:05:08.066Z,78.06
2023-01-23T21:08:10.892Z,77.57
2023-01-23T21:11:16.398Z,77.63
2023-01-23T21:14:20.033Z,78.26
2023-01-23T21:17:22.396Z,78.73
2023-01-23T21:20:24.833Z,78.12
2023-01-23T21:23:27.531Z,77.12
2023-01-23T21:26:30.216Z,77.08
2023-01-23T21:29:34.134Z,77.20
2023-01-23T21:32:36.534Z,76.37
2023-01-23T21:35:39.049Z,76.59
2023-01-23T21:38:41.652Z,76.62
2023-01-23T21:41:44.882Z,76.33
2023-01-23T21:44:48.111Z,75.65
2023-01-23T21:47:50.492Z,75.16
2023-01-23T21:50:52.865Z,74.92
2023-01-23T21:53:55.221Z,75.22
2023-01-23T21:56:57.657Z,74.68
2023-01-23T22:00:18.448Z,73.80
2023-01-23T22:03:20.864Z,72.96
2023-01-23T22:06:23.355Z,72.14
2023-01-23T22:09:26.072Z,71.11
2023-01-23T22:12:29.035Z,71.10
2023-01-23T22:15:31.424Z,70.48
2023-01-23T22:18:34.102Z,69.84
2023-01-23T22:21:36.772Z,70.39
2023-01-23T22:24:39.212Z,69.70
2023-01-23T22:27:41.575Z,70.01
2023-01-23T22:30:46.525Z,70.11
2023-01-23T22:33:49.036Z,71.68
2023-01-23T22:36:51.456Z,72.08
2023-01-23T22:39:53.904Z,72.48
2023-01-23T22:42:56.399Z,73.66
2023-01-23T22:46:07.333Z,72.99
2023-01-23T22:49:10.484Z,72.31
2023-01-23T22:52:12.830Z,72.18
2023-01-23T22:55:15.747Z,71.49
2023-01-23T22:58:18.135Z,71.08
2023-01-23T23:01:23.481Z,70.35
2023-01-23T23:04:25.908Z,70.47
2023-01-23T23:07:28.544Z,70.10
2023-01-23T23:10:35.693Z,69.97
2023-01-23T23:13:40.207Z,69.48
2023-01-23T23:16:42.596Z,68.62
2023-01-23T23:19:45.212Z,68.45
2023-01-23T23:22:47.820Z,68.57
2023-01-23T23:25:54.792Z,69.71
2023-01-23T23:28:59.089Z,69.20
2023-01-23T23:32:01.596Z,68.22
2023-01-23T23:35:04.327Z,68.94
2023-01-23T23:38:06.739Z,69.48
2023-01-23T23:41:13.023Z,69.58
2023-01-23T23:44:15.571Z,69.54
2023-01-23T23:47:17.937Z,70.15
2023-01-23T23:50:21.432Z,70.00
2023-01-23T23:53:23.808Z,70.46
2023-01-23T23:56:28.976Z,70.42
2023-01-23T23:59:31.380Z,70.35
